^^
Station Historical Data
Daily Summary for December 6, 2018 Units:  English    Metric   Both
« Previous Day
Next Day »
Daily Weekly Monthly Yearly Custom
  High: Low: Average:
Temperature: 18.7 °F 13.2 °F 15.6 °F
Dew Point: 14.3 °F 8.6 °F 10.5 °F
Humidity: 89% 71% 80%
Wind Speed: 13mph 0mph 5.4mph
Wind Gust: 16mph - -
Wind- - WSW
Pressure: 30.58 in 30.46 in -
Precipitation: 0 in    
Historical Graphs
 
 
Tabular Data for December 6, 2018
Time Temperature Dew Point Pressure Wind Wind Speed Wind Gust Humidity Rainfall Rate (Hourly) solar Conditions
00:04 17 °F 14.3 °F 30.46 in North 13 mph 16 mph 89% 0 in 0.00 W/m2
00:09 16.9 °F 14 °F 30.47 in NNW 9 mph 16 mph 88% 0 in 0.00 W/m2
00:14 16.5 °F 13.3 °F 30.47 in North 8 mph 16 mph 87% 0 in 0.00 W/m2
00:19 16.1 °F 12.9 °F 30.47 in NNW 8 mph 16 mph 87% 0 in 0.00 W/m2
00:24 15.9 °F 12.7 °F 30.47 in NNW 6 mph 13 mph 87% 0 in 0.00 W/m2
00:29 15.6 °F 12.7 °F 30.48 in NNW 7 mph 11 mph 88% 0 in 0.00 W/m2
00:34 15.4 °F 12.5 °F 30.48 in North 5 mph 9 mph 88% 0 in 0.00 W/m2
00:39 15.1 °F 12.2 °F 30.48 in NNW 5 mph 8 mph 88% 0 in 0.00 W/m2
00:44 14.9 °F 12 °F 30.48 in NW 3 mph 8 mph 88% 0 in 0.00 W/m2
00:49 14.8 °F 11.9 °F 30.49 in NW 3 mph 6 mph 88% 0 in 0.00 W/m2
00:54 14.9 °F 12.2 °F 30.49 in NW 4 mph 7 mph 89% 0 in 0.00 W/m2
00:59 15 °F 12.3 °F 30.50 in NW 4 mph 8 mph 89% 0 in 0.00 W/m2
01:04 15.1 °F 12.4 °F 30.50 in NW 4 mph 8 mph 89% 0 in 0.00 W/m2
01:09 15.3 °F 12.6 °F 30.50 in NNW 6 mph 6 mph 89% 0 in 0.00 W/m2
01:14 15.5 °F 12.8 °F 30.51 in NW 5 mph 7 mph 89% 0 in 0.00 W/m2
01:19 15.7 °F 13 °F 30.51 in NNW 3 mph 7 mph 89% 0 in 0.00 W/m2
01:24 15.8 °F 13.1 °F 30.51 in NNE 4 mph 6 mph 89% 0 in 0.00 W/m2
01:29 15.9 °F 13.2 °F 30.51 in North 6 mph 8 mph 89% 0 in 0.00 W/m2
01:34 15.9 °F 13.2 °F 30.51 in NNE 7 mph 8 mph 89% 0 in 0.00 W/m2
01:39 15.8 °F 13.1 °F 30.51 in NE 8 mph 9 mph 89% 0 in 0.00 W/m2
01:44 15.6 °F 12.7 °F 30.52 in NNE 6 mph 10 mph 88% 0 in 0.00 W/m2
01:49 15.4 °F 12.5 °F 30.52 in NE 7 mph 10 mph 88% 0 in 0.00 W/m2
01:54 15.3 °F 12.4 °F 30.52 in NNE 7 mph 10 mph 88% 0 in 0.00 W/m2
01:59 15.2 °F 12.3 °F 30.52 in NNE 7 mph 10 mph 88% 0 in 0.00 W/m2
02:04 15.1 °F 12.2 °F 30.52 in NNE 9 mph 11 mph 88% 0 in 0.00 W/m2
02:09 15 °F 12.1 °F 30.53 in North 6 mph 11 mph 88% 0 in 0.00 W/m2
02:14 15 °F 12.1 °F 30.53 in North 8 mph 11 mph 88% 0 in 0.00 W/m2
02:19 14.9 °F 12 °F 30.53 in North 7 mph 10 mph 88% 0 in 0.00 W/m2
02:24 14.9 °F 12 °F 30.53 in North 7 mph 12 mph 88% 0 in 0.00 W/m2
02:29 14.7 °F 11.8 °F 30.53 in North 8 mph 12 mph 88% 0 in 0.00 W/m2
02:34 14.6 °F 11.7 °F 30.54 in North 9 mph 11 mph 88% 0 in 0.00 W/m2
02:39 14.4 °F 11.5 °F 30.54 in North 10 mph 12 mph 88% 0 in 0.00 W/m2
02:44 14.4 °F 11.5 °F 30.54 in North 8 mph 12 mph 88% 0 in 0.00 W/m2
02:49 14.3 °F 11.4 °F 30.54 in North 7 mph 10 mph 88% 0 in 0.00 W/m2
02:54 14.2 °F 11 °F 30.54 in North 8 mph 11 mph 87% 0 in 0.00 W/m2
02:59 14 °F 10.8 °F 30.55 in North 8 mph 11 mph 87% 0 in 0.00 W/m2
03:04 13.8 °F 10.6 °F 30.55 in North 6 mph 11 mph 87% 0 in 0.00 W/m2
03:09 13.7 °F 10.5 °F 30.55 in NNW 5 mph 11 mph 87% 0 in 0.00 W/m2
03:14 13.7 °F 10.5 °F 30.55 in NNW 7 mph 10 mph 87% 0 in 0.00 W/m2
03:19 13.7 °F 10.5 °F 30.55 in North 7 mph 9 mph 87% 0 in 0.00 W/m2
03:24 13.7 °F 10.5 °F 30.55 in North 9 mph 10 mph 87% 0 in 0.00 W/m2
03:29 13.7 °F 10.5 °F 30.55 in NNW 6 mph 11 mph 87% 0 in 0.00 W/m2
03:34 13.8 °F 10.6 °F 30.55 in North 6 mph 11 mph 87% 0 in 0.00 W/m2
03:39 13.8 °F 10.6 °F 30.55 in North 5 mph 10 mph 87% 0 in 0.00 W/m2
03:44 13.7 °F 10.3 °F 30.55 in North 4 mph 9 mph 86% 0 in 0.00 W/m2
03:49 13.7 °F 10.3 °F 30.55 in NNW 9 mph 9 mph 86% 0 in 0.00 W/m2
03:54 13.7 °F 10.3 °F 30.55 in NNW 5 mph 9 mph 86% 0 in 0.00 W/m2
03:59 13.7 °F 10.3 °F 30.55 in NW 4 mph 9 mph 86% 0 in 0.00 W/m2
04:04 13.7 °F 10.3 °F 30.55 in NNW 5 mph 8 mph 86% 0 in 0.00 W/m2
04:09 13.7 °F 10.3 °F 30.55 in NNW 6 mph 7 mph 86% 0 in 0.00 W/m2
04:14 13.7 °F 10.3 °F 30.55 in NNW 6 mph 8 mph 86% 0 in 0.00 W/m2
04:19 13.6 °F 10.2 °F 30.55 in NNW 4 mph 8 mph 86% 0 in 0.00 W/m2
04:24 13.6 °F 10.2 °F 30.55 in NNW 4 mph 6 mph 86% 0 in 0.00 W/m2
04:29 13.6 °F 10.2 °F 30.55 in NNW 4 mph 6 mph 86% 0 in 0.00 W/m2
04:34 13.6 °F 10.2 °F 30.55 in NNW 4 mph 6 mph 86% 0 in 0.00 W/m2
04:39 13.6 °F 10.2 °F 30.55 in NW 4 mph 5 mph 86% 0 in 0.00 W/m2
04:44 13.6 °F 10.2 °F 30.55 in NNW 6 mph 8 mph 86% 0 in 0.00 W/m2
04:49 13.6 °F 10.2 °F 30.55 in NW 5 mph 8 mph 86% 0 in 0.00 W/m2
04:54 13.6 °F 10.2 °F 30.56 in NNW 7 mph 8 mph 86% 0 in 0.00 W/m2
04:59 13.6 °F 10.2 °F 30.56 in NW 4 mph 8 mph 86% 0 in 0.00 W/m2
05:04 13.5 °F 10.1 °F 30.56 in NNW 5 mph 7 mph 86% 0 in 0.00 W/m2
05:09 13.6 °F 10.2 °F 30.56 in NNW 4 mph 6 mph 86% 0 in 0.00 W/m2
05:14 13.6 °F 10.5 °F 30.56 in NNW 6 mph 6 mph 87% 0 in 0.00 W/m2
05:19 13.6 °F 10.5 °F 30.56 in NNW 2 mph 7 mph 87% 0 in 0.00 W/m2
05:24 13.6 °F 10.2 °F 30.56 in NW 5 mph 7 mph 86% 0 in 0.00 W/m2
05:29 13.6 °F 10.2 °F 30.56 in NNW 3 mph 6 mph 86% 0 in 0.00 W/m2
05:34 13.6 °F 10.2 °F 30.57 in WNW 3 mph 6 mph 86% 0 in 0.00 W/m2
05:39 13.6 °F 10.2 °F 30.56 in NW 3 mph 5 mph 86% 0 in 0.00 W/m2
05:44 13.6 °F 10.2 °F 30.56 in NW 3 mph 5 mph 86% 0 in 0.00 W/m2
05:49 13.5 °F 10.1 °F 30.56 in NW 2 mph 4 mph 86% 0 in 0.00 W/m2
05:54 13.5 °F 10.1 °F 30.56 in NW 3 mph 4 mph 86% 0 in 0.00 W/m2
05:59 13.5 °F 10.1 °F 30.56 in NW 4 mph 4 mph 86% 0 in 0.00 W/m2
06:04 13.5 °F 10.1 °F 30.56 in NW 3 mph 4 mph 86% 0 in 0.00 W/m2
06:09 13.5 °F 10.1 °F 30.56 in NW 2 mph 4 mph 86% 0 in 0.00 W/m2
06:14 13.5 °F 10.1 °F 30.56 in NW 3 mph 3 mph 86% 0 in 0.00 W/m2
06:19 13.5 °F 10.4 °F 30.56 in Calm   3 mph 87% 0 in 0.00 W/m2
06:24 13.5 °F 10.4 °F 30.56 in NW 1 mph 3 mph 87% 0 in 0.00 W/m2
06:29 13.5 °F 10.4 °F 30.56 in NW 1 mph 2 mph 87% 0 in 0.00 W/m2
06:34 13.5 °F 10.4 °F 30.56 in Calm   2 mph 87% 0 in 0.00 W/m2
06:39 13.5 °F 10.4 °F 30.56 in NW 2 mph 2 mph 87% 0 in 0.00 W/m2
06:44 13.5 °F 10.4 °F 30.57 in NW 1 mph 3 mph 87% 0 in 0.00 W/m2
06:49 13.6 °F 10.5 °F 30.57 in NW 3 mph 4 mph 87% 0 in 0.00 W/m2
06:54 13.7 °F 10.8 °F 30.57 in West 3 mph 5 mph 88% 0 in 0.00 W/m2
06:59 13.7 °F 10.8 °F 30.57 in WSW 4 mph 6 mph 88% 0 in 0.00 W/m2
07:04 13.8 °F 10.9 °F 30.57 in West 3 mph 6 mph 88% 0 in 0.00 W/m2
07:09 13.8 °F 10.9 °F 30.58 in West 4 mph 6 mph 88% 0 in 0.00 W/m2
07:14 14 °F 11.4 °F 30.57 in West 5 mph 6 mph 89% 0 in 0.00 W/m2
07:19 14 °F 11.4 °F 30.57 in WSW 5 mph 7 mph 89% 0 in 0.00 W/m2
07:24 14 °F 11.4 °F 30.57 in WSW 5 mph 7 mph 89% 0 in 0.00 W/m2
07:29 14.1 °F 11.5 °F 30.57 in WSW 9 mph 9 mph 89% 0 in 0.00 W/m2
07:34 14.1 °F 11.5 °F 30.57 in West 6 mph 9 mph 89% 0 in 0.00 W/m2
07:39 14.1 °F 11.5 °F 30.57 in West 7 mph 9 mph 89% 0 in 0.00 W/m2
07:44 14.2 °F 11.6 °F 30.57 in WNW 7 mph 9 mph 89% 0 in 0.00 W/m2
07:49 14.3 °F 11.4 °F 30.57 in NW 4 mph 9 mph 88% 0 in 0.00 W/m2
07:54 14.3 °F 11.4 °F 30.57 in WNW 7 mph 10 mph 88% 0 in 0.00 W/m2
07:59 14.2 °F 11.3 °F 30.57 in NW 7 mph 11 mph 88% 0 in 0.00 W/m2
08:04 14 °F 11.1 °F 30.57 in WNW 7 mph 12 mph 88% 0 in 0.00 W/m2
08:09 13.9 °F 10.7 °F 30.57 in WNW 6 mph 12 mph 87% 0 in 0.00 W/m2
08:14 13.7 °F 10.3 °F 30.57 in NNW 4 mph 12 mph 86% 0 in 5.00 W/m2
08:19 13.6 °F 9.9 °F 30.57 in NW 7 mph 12 mph 85% 0 in 5.00 W/m2
08:24 13.6 °F 9.7 °F 30.57 in NW 5 mph 9 mph 84% 0 in 9.00 W/m2
08:29 13.6 °F 9.7 °F 30.57 in WNW 6 mph 9 mph 84% 0 in 11.00 W/m2
08:34 13.6 °F 9.4 °F 30.57 in NW 7 mph 9 mph 83% 0 in 14.00 W/m2
08:39 13.5 °F 9.3 °F 30.57 in WNW 8 mph 9 mph 83% 0 in 18.00 W/m2
08:44 13.3 °F 9.1 °F 30.57 in NW 5 mph 9 mph 83% 0 in 21.00 W/m2
08:49 13.3 °F 9.1 °F 30.57 in NNW 7 mph 9 mph 83% 0 in 26.00 W/m2
08:54 13.2 °F 9 °F 30.58 in NW 8 mph 9 mph 83% 0 in 32.00 W/m2
08:59 13.2 °F 9 °F 30.57 in NW 6 mph 9 mph 83% 0 in 33.00 W/m2
09:04 13.2 °F 9 °F 30.58 in NW 7 mph 9 mph 83% 0 in 40.00 W/m2
09:09 13.2 °F 9 °F 30.58 in NW 3 mph 8 mph 83% 0 in 46.00 W/m2
09:14 13.2 °F 9 °F 30.58 in WNW 5 mph 8 mph 83% 0 in 53.00 W/m2
09:19 13.3 °F 9.1 °F 30.57 in NW 5 mph 8 mph 83% 0 in 53.00 W/m2
09:24 13.3 °F 8.8 °F 30.57 in NNW 5 mph 8 mph 82% 0 in 60.00 W/m2
09:29 13.4 °F 8.9 °F 30.57 in NW 5 mph 8 mph 82% 0 in 67.00 W/m2
09:34 13.4 °F 8.9 °F 30.57 in NW 5 mph 7 mph 82% 0 in 76.00 W/m2
09:39 13.4 °F 8.9 °F 30.57 in NW 4 mph 7 mph 82% 0 in 77.00 W/m2
09:44 13.4 °F 8.7 °F 30.58 in NW 4 mph 7 mph 81% 0 in 83.00 W/m2
09:49 13.5 °F 8.8 °F 30.58 in NW 4 mph 6 mph 81% 0 in 97.00 W/m2
09:54 13.6 °F 8.9 °F 30.58 in WNW 4 mph 5 mph 81% 0 in 107.00 W/m2
09:59 13.6 °F 8.6 °F 30.58 in WNW 3 mph 5 mph 80% 0 in 114.00 W/m2
10:04 13.7 °F 8.7 °F 30.58 in WNW 3 mph 5 mph 80% 0 in 125.00 W/m2
10:09 13.8 °F 8.8 °F 30.58 in WSW 3 mph 4 mph 80% 0 in 132.00 W/m2
10:14 13.9 °F 8.9 °F 30.58 in West 3 mph 5 mph 80% 0 in 135.00 W/m2
10:19 14 °F 8.7 °F 30.58 in WNW 2 mph 5 mph 79% 0 in 130.00 W/m2
10:24 14.1 °F 9.1 °F 30.58 in WNW 3 mph 5 mph 80% 0 in 135.00 W/m2
10:29 14.1 °F 8.8 °F 30.58 in WNW 3 mph 5 mph 79% 0 in 141.00 W/m2
10:34 14.2 °F 8.9 °F 30.58 in WNW 2 mph 4 mph 79% 0 in 155.00 W/m2
10:39 14.3 °F 9 °F 30.58 in WNW 4 mph 4 mph 79% 0 in 146.00 W/m2
10:44 14.4 °F 9.1 °F 30.58 in West 3 mph 6 mph 79% 0 in 156.00 W/m2
10:49 14.6 °F 9.3 °F 30.58 in WNW 4 mph 6 mph 79% 0 in 160.00 W/m2
10:54 14.6 °F 9.3 °F 30.58 in West 4 mph 7 mph 79% 0 in 163.00 W/m2
10:59 14.7 °F 9.1 °F 30.58 in WSW 5 mph 7 mph 78% 0 in 165.00 W/m2
11:04 14.9 °F 9.3 °F 30.58 in WNW 4 mph 7 mph 78% 0 in 174.00 W/m2
11:09 14.9 °F 9.3 °F 30.58 in West 5 mph 8 mph 78% 0 in 183.00 W/m2
11:14 14.9 °F 9.3 °F 30.58 in West 3 mph 8 mph 78% 0 in 185.00 W/m2
11:19 14.9 °F 9 °F 30.58 in West 4 mph 8 mph 77% 0 in 186.00 W/m2
11:24 15.1 °F 9.2 °F 30.58 in West 6 mph 8 mph 77% 0 in 200.00 W/m2
11:29 15.1 °F 9.2 °F 30.57 in WSW 6 mph 8 mph 77% 0 in 188.00 W/m2
11:34 15.1 °F 9.2 °F 30.57 in WNW 5 mph 8 mph 77% 0 in 190.00 W/m2
11:39 15.2 °F 9.3 °F 30.57 in West 6 mph 8 mph 77% 0 in 186.00 W/m2
11:44 15.4 °F 9.5 °F 30.57 in WSW 6 mph 8 mph 77% 0 in 181.00 W/m2
11:49 15.5 °F 9.6 °F 30.57 in WSW 5 mph 9 mph 77% 0 in 190.00 W/m2
11:54 15.6 °F 9.7 °F 30.57 in West 3 mph 9 mph 77% 0 in 179.00 W/m2
11:59 15.6 °F 9.7 °F 30.57 in WSW 6 mph 9 mph 77% 0 in 171.00 W/m2
12:04 15.8 °F 9.9 °F 30.57 in West 6 mph 9 mph 77% 0 in 171.00 W/m2
12:09 16.1 °F 10.2 °F 30.56 in West 8 mph 9 mph 77% 0 in 167.00 W/m2
12:14 16.2 °F 10.3 °F 30.56 in WSW 7 mph 10 mph 77% 0 in 172.00 W/m2
12:19 16.2 °F 10 °F 30.56 in WSW 6 mph 10 mph 76% 0 in 165.00 W/m2
12:24 16.3 °F 10.4 °F 30.55 in WSW 7 mph 10 mph 77% 0 in 165.00 W/m2
12:29 16.4 °F 10.4 °F 30.55 in West 6 mph 10 mph 77% 0 in 165.00 W/m2
12:34 16.4 °F 10.4 °F 30.55 in West 4 mph 10 mph 77% 0 in 165.00 W/m2
12:39 16.4 °F 10.2 °F 30.55 in SW 7 mph 9 mph 76% 0 in 165.00 W/m2
12:44 16.4 °F 10.4 °F 30.55 in WSW 7 mph 9 mph 77% 0 in 163.00 W/m2
12:49 16.5 °F 10.5 °F 30.55 in West 6 mph 7 mph 77% 0 in 160.00 W/m2
12:54 16.5 °F 10.8 °F 30.54 in WSW 5 mph 7 mph 78% 0 in 160.00 W/m2
12:59 16.5 °F 10.8 °F 30.54 in SW 5 mph 7 mph 78% 0 in 160.00 W/m2
13:04 16.6 °F 10.9 °F 30.54 in WSW 4 mph 7 mph 78% 0 in 149.00 W/m2
13:09 16.7 °F 11.3 °F 30.54 in WSW 4 mph 6 mph 79% 0 in 142.00 W/m2
13:14 16.8 °F 11.4 °F 30.54 in WSW 3 mph 7 mph 79% 0 in 149.00 W/m2
13:19 16.9 °F 11.5 °F 30.54 in West 5 mph 7 mph 79% 0 in 142.00 W/m2
13:24 17 °F 11.6 °F 30.53 in West 5 mph 7 mph 79% 0 in 139.00 W/m2
13:29 17 °F 11.6 °F 30.53 in WSW 6 mph 7 mph 79% 0 in 142.00 W/m2
13:34 17.3 °F 11.9 °F 30.53 in West 6 mph 8 mph 79% 0 in 141.00 W/m2
13:39 17.5 °F 11.2 °F 30.53 in WSW 10 mph 15 mph 76% 0 in 149.00 W/m2
13:44 17.6 °F 10.7 °F 30.53 in WSW 6 mph 15 mph 74% 0 in 144.00 W/m2
13:49 17.8 °F 10.6 °F 30.52 in SW 7 mph 15 mph 73% 0 in 151.00 W/m2
13:54 17.7 °F 10.5 °F 30.52 in WSW 10 mph 15 mph 73% 0 in 144.00 W/m2
13:59 17.7 °F 10.8 °F 30.52 in West 10 mph 15 mph 74% 0 in 146.00 W/m2
14:04 17.6 °F 10.4 °F 30.52 in WSW 9 mph 15 mph 73% 0 in 153.00 W/m2
14:09 17.6 °F 9.8 °F 30.52 in West 9 mph 13 mph 71% 0 in 144.00 W/m2
14:14 17.7 °F 10.2 °F 30.52 in West 12 mph 12 mph 72% 0 in 141.00 W/m2
14:19 17.6 °F 9.8 °F 30.52 in WSW 9 mph 13 mph 71% 0 in 135.00 W/m2
14:24 17.7 °F 10.2 °F 30.52 in WSW 7 mph 13 mph 72% 0 in 125.00 W/m2
14:29 17.6 °F 9.8 °F 30.52 in WSW 7 mph 12 mph 71% 0 in 120.00 W/m2
14:34 17.6 °F 10.1 °F 30.52 in WSW 8 mph 12 mph 72% 0 in 118.00 W/m2
14:39 17.6 °F 10.1 °F 30.52 in West 6 mph 12 mph 72% 0 in 105.00 W/m2
14:44 17.6 °F 10.1 °F 30.52 in West 9 mph 12 mph 72% 0 in 107.00 W/m2
14:49 17.6 °F 10.1 °F 30.52 in WSW 6 mph 10 mph 72% 0 in 105.00 W/m2
14:54 17.8 °F 10.3 °F 30.51 in WSW 8 mph 12 mph 72% 0 in 105.00 W/m2
14:59 17.8 °F 10.3 °F 30.52 in WSW 7 mph 12 mph 72% 0 in 118.00 W/m2
15:04 17.8 °F 10.6 °F 30.51 in West 6 mph 11 mph 73% 0 in 104.00 W/m2
15:09 17.8 °F 10.6 °F 30.51 in WNW 7 mph 11 mph 73% 0 in 98.00 W/m2
15:14 17.7 °F 10.5 °F 30.52 in WSW 6 mph 10 mph 73% 0 in 93.00 W/m2
15:19 17.8 °F 10.3 °F 30.51 in WSW 6 mph 11 mph 72% 0 in 93.00 W/m2
15:24 17.8 °F 10 °F 30.51 in West 6 mph 11 mph 71% 0 in 86.00 W/m2
15:29 17.9 °F 10.1 °F 30.51 in West 6 mph 9 mph 71% 0 in 76.00 W/m2
15:34 17.9 °F 10.4 °F 30.51 in West 7 mph 11 mph 72% 0 in 65.00 W/m2
15:39 17.9 °F 10.4 °F 30.51 in WSW 6 mph 11 mph 72% 0 in 62.00 W/m2
15:44 18 °F 10.5 °F 30.51 in West 8 mph 10 mph 72% 0 in 62.00 W/m2
15:49 18 °F 10.5 °F 30.51 in WSW 7 mph 11 mph 72% 0 in 58.00 W/m2
15:54 18 °F 10.2 °F 30.51 in West 6 mph 12 mph 71% 0 in 53.00 W/m2
15:59 18 °F 10.5 °F 30.51 in West 5 mph 12 mph 72% 0 in 39.00 W/m2
16:04 17.9 °F 10.4 °F 30.50 in West 6 mph 10 mph 72% 0 in 35.00 W/m2
16:09 17.8 °F 10.3 °F 30.51 in West 9 mph 10 mph 72% 0 in 33.00 W/m2
16:14 17.8 °F 10.3 °F 30.51 in West 5 mph 10 mph 72% 0 in 28.00 W/m2
16:19 17.9 °F 10.4 °F 30.51 in West 6 mph 10 mph 72% 0 in 23.00 W/m2
16:24 17.9 °F 10.4 °F 30.50 in WSW 5 mph 9 mph 72% 0 in 19.00 W/m2
16:29 18 °F 10.5 °F 30.50 in WSW 7 mph 10 mph 72% 0 in 18.00 W/m2
16:34 18 °F 10.5 °F 30.51 in WSW 7 mph 10 mph 72% 0 in 12.00 W/m2
16:39 18 °F 10.5 °F 30.51 in WSW 8 mph 10 mph 72% 0 in 9.00 W/m2
16:44 18 °F 10.2 °F 30.51 in WSW 7 mph 8 mph 71% 0 in 7.00 W/m2
16:49 18.1 °F 10.6 °F 30.51 in WSW 7 mph 8 mph 72% 0 in 5.00 W/m2
16:54 18.1 °F 10.6 °F 30.51 in SW 7 mph 10 mph 72% 0 in 5.00 W/m2
16:59 18.1 °F 10.6 °F 30.51 in WSW 4 mph 10 mph 72% 0 in 0.00 W/m2
17:04 18.1 °F 10.6 °F 30.51 in WSW 4 mph 8 mph 72% 0 in 0.00 W/m2
17:09 18.1 °F 10.6 °F 30.51 in WSW 7 mph 8 mph 72% 0 in 0.00 W/m2
17:14 18.1 °F 10.9 °F 30.51 in SW 3 mph 8 mph 73% 0 in 0.00 W/m2
17:19 18.1 °F 10.9 °F 30.51 in WSW 3 mph 7 mph 73% 0 in 0.00 W/m2
17:24 18.1 °F 11.2 °F 30.51 in SW 3 mph 6 mph 74% 0 in 0.00 W/m2
17:29 18.1 °F 11.2 °F 30.51 in SW 5 mph 6 mph 74% 0 in 0.00 W/m2
17:34 18.2 °F 11.3 °F 30.51 in SSW 4 mph 6 mph 74% 0 in 0.00 W/m2
17:39 18.2 °F 11.3 °F 30.51 in SSW 4 mph 8 mph 74% 0 in 0.00 W/m2
17:44 18.3 °F 11.4 °F 30.51 in SSW 6 mph 8 mph 74% 0 in 0.00 W/m2
17:49 18.3 °F 11.4 °F 30.51 in SSW 4 mph 7 mph 74% 0 in 0.00 W/m2
17:54 18.3 °F 11.4 °F 30.51 in South 3 mph 6 mph 74% 0 in 0.00 W/m2
17:59 18.2 °F 11.3 °F 30.51 in South 3 mph 5 mph 74% 0 in 0.00 W/m2
18:04 18.2 °F 11.3 °F 30.51 in SSW 6 mph 6 mph 74% 0 in 0.00 W/m2
18:09 18.3 °F 11.4 °F 30.51 in South 3 mph 8 mph 74% 0 in 0.00 W/m2
18:14 18.3 °F 11.4 °F 30.50 in South 7 mph 8 mph 74% 0 in 0.00 W/m2
18:19 18.3 °F 11.7 °F 30.50 in South 4 mph 7 mph 75% 0 in 0.00 W/m2
18:24 18.3 °F 11.7 °F 30.50 in South 5 mph 7 mph 75% 0 in 0.00 W/m2
18:29 18.2 °F 11.6 °F 30.49 in South 5 mph 7 mph 75% 0 in 0.00 W/m2
18:34 18.2 °F 11.6 °F 30.49 in South 4 mph 7 mph 75% 0 in 0.00 W/m2
18:39 18.2 °F 11.6 °F 30.49 in South 5 mph 7 mph 75% 0 in 0.00 W/m2
18:44 18.3 °F 11.7 °F 30.49 in South 6 mph 8 mph 75% 0 in 0.00 W/m2
18:49 18.3 °F 11.7 °F 30.49 in South 7 mph 8 mph 75% 0 in 0.00 W/m2
18:54 18.5 °F 11.6 °F 30.49 in SSE 5 mph 8 mph 74% 0 in 0.00 W/m2
18:59 18.5 °F 11.6 °F 30.49 in South 4 mph 8 mph 74% 0 in 0.00 W/m2
19:04 18.6 °F 12 °F 30.48 in South 5 mph 8 mph 75% 0 in 0.00 W/m2
19:09 18.6 °F 12 °F 30.48 in SSE 5 mph 8 mph 75% 0 in 0.00 W/m2
19:14 18.7 °F 11.8 °F 30.48 in South 5 mph 8 mph 74% 0 in 0.00 W/m2
19:19 18.7 °F 11.8 °F 30.48 in South 5 mph 9 mph 74% 0 in 0.00 W/m2
19:24 18.7 °F 11.8 °F 30.48 in South 7 mph 9 mph 74% 0 in 0.00 W/m2
19:29 18.7 °F 11.8 °F 30.48 in SSE 3 mph 9 mph 74% 0 in 0.00 W/m2
19:34 18.7 °F 11.8 °F 30.48 in SSE 3 mph 7 mph 74% 0 in 0.00 W/m2
19:39 18.5 °F 11.6 °F 30.47 in SSE 4 mph 6 mph 74% 0 in 0.00 W/m2
19:44 18.4 °F 11.5 °F 30.48 in South 4 mph 7 mph 74% 0 in 0.00 W/m2
19:49 18.3 °F 11.4 °F 30.47 in South 6 mph 8 mph 74% 0 in 0.00 W/m2
19:54 18.3 °F 11.4 °F 30.47 in SSE 6 mph 8 mph 74% 0 in 0.00 W/m2
19:59 18.2 °F 11.3 °F 30.47 in South 8 mph 10 mph 74% 0 in 0.00 W/m2
20:04 18.1 °F 11.2 °F 30.47 in South 8 mph 10 mph 74% 0 in 0.00 W/m2
20:09 18.1 °F 11.2 °F 30.47 in South 5 mph 10 mph 74% 0 in 0.00 W/m2
20:14 18.1 °F 11.2 °F 30.48 in South 7 mph 8 mph 74% 0 in 0.00 W/m2
20:19 18.1 °F 11.2 °F 30.48 in South 4 mph 8 mph 74% 0 in 0.00 W/m2
20:24 18.2 °F 11.3 °F 30.48 in South 5 mph 7 mph 74% 0 in 0.00 W/m2
20:29 18.2 °F 11.3 °F 30.48 in South 2 mph 6 mph 74% 0 in 0.00 W/m2
20:34 18.1 °F 11.2 °F 30.48 in South 4 mph 7 mph 74% 0 in 0.00 W/m2
20:39 18.1 °F 11.2 °F 30.47 in South 4 mph 7 mph 74% 0 in 0.00 W/m2
20:44 17.9 °F 11 °F 30.47 in South 6 mph 7 mph 74% 0 in 0.00 W/m2
20:49 17.7 °F 10.8 °F 30.47 in South 5 mph 8 mph 74% 0 in 0.00 W/m2
20:54 17.5 °F 10.6 °F 30.47 in South 4 mph 8 mph 74% 0 in 0.00 W/m2
20:59 17.2 °F 10.3 °F 30.47 in South 5 mph 7 mph 74% 0 in 0.00 W/m2
21:04 17 °F 10.4 °F 30.47 in South 5 mph 8 mph 75% 0 in 0.00 W/m2
21:09 16.8 °F 10.2 °F 30.47 in South 6 mph 8 mph 75% 0 in 0.00 W/m2
21:14 16.6 °F 10.1 °F 30.47 in South 5 mph 10 mph 75% 0 in 0.00 W/m2
21:19 16.5 °F 10 °F 30.47 in South 7 mph 10 mph 75% 0 in 0.00 W/m2
21:24 16.5 °F 10 °F 30.47 in South 7 mph 10 mph 75% 0 in 0.00 W/m2
21:29 16.5 °F 10 °F 30.47 in South 7 mph 10 mph 75% 0 in 0.00 W/m2
21:34 16.3 °F 9.8 °F 30.47 in SSE 5 mph 10 mph 75% 0 in 0.00 W/m2
21:39 16.1 °F 9.6 °F 30.47 in SSE 5 mph 9 mph 75% 0 in 0.00 W/m2
21:44 15.8 °F 9.6 °F 30.47 in SSE 6 mph 8 mph 76% 0 in 0.00 W/m2
21:49 15.5 °F 9.3 °F 30.47 in SSE 5 mph 8 mph 76% 0 in 0.00 W/m2
21:54 15.3 °F 9.4 °F 30.46 in SSE 6 mph 7 mph 77% 0 in 0.00 W/m2
21:59 15.1 °F 9.2 °F 30.46 in South 6 mph 8 mph 77% 0 in 0.00 W/m2
22:04 15.1 °F 9.2 °F 30.46 in SSE 6 mph 8 mph 77% 0 in 0.00 W/m2
22:09 15 °F 9.1 °F 30.46 in SSE 6 mph 7 mph 77% 0 in 0.00 W/m2
22:14 15 °F 9.4 °F 30.46 in SSE 6 mph 9 mph 78% 0 in 0.00 W/m2
22:19 15 °F 9.1 °F 30.46 in South 8 mph 9 mph 77% 0 in 0.00 W/m2
22:24 14.7 °F 8.8 °F 30.46 in SSE 5 mph 8 mph 77% 0 in 0.00 W/m2
22:29 14.7 °F 9.1 °F 30.46 in SSE 6 mph 8 mph 78% 0 in 0.00 W/m2
22:34 14.6 °F 9 °F 30.46 in SSE 6 mph 7 mph 78% 0 in 0.00 W/m2
22:39 14.5 °F 8.9 °F 30.46 in SSE 6 mph 7 mph 78% 0 in 0.00 W/m2
22:44 14.4 °F 9.1 °F 30.46 in SSE 5 mph 7 mph 79% 0 in 0.00 W/m2
22:49 14.5 °F 9.2 °F 30.46 in SE 5 mph 7 mph 79% 0 in 0.00 W/m2
22:54 14.5 °F 9.2 °F 30.46 in SE 4 mph 7 mph 79% 0 in 0.00 W/m2
22:59 14.6 °F 9.3 °F 30.46 in SE 5 mph 7 mph 79% 0 in 0.00 W/m2
23:04 14.5 °F 9.2 °F 30.46 in SE 6 mph 7 mph 79% 0 in 0.00 W/m2
23:09 14.3 °F 9 °F 30.46 in SE 4 mph 7 mph 79% 0 in 0.00 W/m2
23:14 14.2 °F 8.9 °F 30.46 in ESE 4 mph 7 mph 79% 0 in 0.00 W/m2
23:19 14.2 °F 9.2 °F 30.46 in SE 5 mph 7 mph 80% 0 in 0.00 W/m2
23:24 14.2 °F 9.2 °F 30.46 in SE 4 mph 7 mph 80% 0 in 0.00 W/m2
23:29 14 °F 9 °F 30.46 in SE 5 mph 7 mph 80% 0 in 0.00 W/m2
23:34 13.8 °F 8.8 °F 30.46 in SE 3 mph 6 mph 80% 0 in 0.00 W/m2
23:39 13.7 °F 8.7 °F 30.46 in ESE 4 mph 6 mph 80% 0 in 0.00 W/m2
23:44 13.8 °F 9 °F 30.46 in SE 4 mph 6 mph 81% 0 in 0.00 W/m2
23:49 13.8 °F 9 °F 30.46 in SE 5 mph 6 mph 81% 0 in 0.00 W/m2
23:54 13.8 °F 9 °F 30.46 in SSE 4 mph 6 mph 81% 0 in 0.00 W/m2
23:59 13.6 °F 8.9 °F 30.46 in SSE 3 mph 6 mph 81% 0 in 0.00 W/m2
Bismarck, North Dakota, USA
Compliments of Weather Underground - 2 mb